Terminal Aerodrome Forecast
Issued by NWS

Home | Current Version | Previous Version | Text Only | Print | Product List | Glossary On
Versions: 1 2 3 4 5 6 7 8 9 10 11 12
000
FTUS43 KGRR 300540
TAFLAN
TAF
KLAN 300540Z 3006/3106 26008KT P6SM SKC
     FM301200 25010KT P6SM SCT035
     FM301600 25015G21KT P6SM VCSH BKN050 BKN070
     FM310000 25011KT P6SM SCT250=

USA.gov is the U.S. government's official web portal to all federal, state and local government web resources and services.